Tropical Cyclones
[Index]
Main Index Home Page Stock Weather Photos Extreme Storms Discussion Storm News and Storm Chasing Reports Tropical Cyclones / Hurricanes / Typhoons Weather Data and Links Wild Fires / Bushfires Weather Observation Techniques Weather Picture Catalogue Tornado Pictures and Reports Stock Video Footage and DVDs for sale
Season 1980-1981 Tropical Cyclone PADDY Track Map
Season 1980-1981 Summaries: [BoM-AU] [JTWC-AU] [JTWC-SIO] [JTWC-SPAC] [JTWC-SH]
<<- Previous TC | JTWC 1980-1981 Season | Next TC ->>

click for intensity scale information  Lat/long Grid: Show Hide

 Date Labels: Show Hide

Joint Typhoon Warning Centre Cyclone Data

Name: PADDY

22 May 1981 00:00 UTC to 30 May 1981 12:00 UTC

    date/time    lat    long     hPa   cat  kts
1981-05-22 00    8.0    90.7                  20          
1981-05-22 06    7.8    90.7                  20          
1981-05-22 12    7.5    90.6                  20          
1981-05-22 18    7.3    90.5                  20          
1981-05-23 00    7.0    90.4                  20          
1981-05-23 06    6.6    90.1                  20          
1981-05-23 12    6.3    89.8                  20          
1981-05-23 18    6.6    89.4                  20          
1981-05-24 00    7.2    89.1                  20          
1981-05-24 06    7.8    89.5                  20          
1981-05-24 12    8.4    90.1                  20          
1981-05-24 18    9.0    90.4                  20          
1981-05-25 00    9.7    90.8                  25          
1981-05-25 06   10.3    91.1                  25          
1981-05-25 12   10.8    91.5                  25          
1981-05-25 18   11.2    91.7                  25          
1981-05-26 00   11.5    91.8                  30          
1981-05-26 06   11.9    91.8                  30          
1981-05-26 12   12.3    91.8                  30          
1981-05-26 18   12.7    91.7                  35          
1981-05-27 00   13.1    91.6                  35          
1981-05-27 06   13.4    91.7                  35          
1981-05-27 12   13.7    91.9                  35          
1981-05-27 18   13.9    92.2                  35          
1981-05-28 00   14.1    92.5                  35          
1981-05-28 06   14.4    92.6                  35          
1981-05-28 12   14.8    92.8                  30          
1981-05-28 18   15.3    92.9                  30          
1981-05-29 00   15.8    93.1                  30          
1981-05-29 06   16.1    93.4                  30          
1981-05-29 12   16.4    93.8                  25          
1981-05-29 18   16.8    94.3                  25          
1981-05-30 00   17.1    94.8                  25          
1981-05-30 06   17.4    95.3                  25          
1981-05-30 12   17.7    95.8                  20          
Winds are 1-min average.

Tropical cyclone tracks developed by Michael Bath using data from the Joint Typhoon Warning Centre Best Tracks and Google Maps.


[Australian Severe Weather index] [Copyright Notice] [Email Contacts] [Search This Site] [Privacy Policy]
Document: tropical_cyclone_paddy.htm Updated: 18 September 2016